Time;durP1;ratioP1;P1;durP2;ratioP2;P2;SDS_P1;SDS_P2;PMS_P1;PMS_P2;Temp;Humidity;BMP_temperature;BMP_pressure;BME280_temperature;BME280_humidity;BME280_pressure;Samples;Min_cycle;Max_cycle;Signal;HPM_P1;HPM_P2
2022/02/11 00:00:38;;;;;;;;;;;;;;;;;;2214162;59;1294;-70
2022/02/11 00:06:04;;;;;;;;;;;;;;;;;;2213609;59;1621;-70
2022/02/11 00:08:37;;;;;;;;;;;;;;;;;;2214677;59;1928;-70
2022/02/11 00:11:10;;;;;;;;;;;;;;;;;;2214087;59;1557;-70
2022/02/11 00:13:46;;;;;;;;;;;;;;;;;;2214602;59;1404;-70
2022/02/11 00:16:19;;;;;;;;;;;;;;;;;;2214008;59;1534;-70
2022/02/11 00:18:52;;;;;;;;;;;;;;;;;;2214134;59;1210;-70
2022/02/11 00:21:26;;;;;;;;;;;;;;;;;;2214645;59;3815;-70
2022/02/11 00:23:59;;;;;;;;;;;;;;;;;;2214010;59;1237;-70
2022/02/11 00:26:35;;;;;;;;;;;;;;;;;;2214519;59;1979;-70
2022/02/11 00:32:10;;;;;;;;;;;;;;;;;;2214493;59;1180;-70
2022/02/11 00:34:48;;;;;;;;;;;;;;;;;;2214190;59;1945;-70
2022/02/11 00:37:24;;;;;;;;;;;;;;;;;;2213706;59;1741;-70
2022/02/11 00:40:14;;;;;;;;;;;;;;;;;;2213909;59;1300;-70
2022/02/11 00:43:43;;;;;;;;;;;;;;;;;;2214972;66;1430;-70
2022/02/11 00:46:19;;;;;;;;;;;;;;;;;;2214671;59;1505;-70
2022/02/11 01:03:03;;;;;;;;;;;;;;;;;;2214033;59;1190;-69
2022/02/11 01:05:36;;;;;;;;;;;;;;;;;;2215069;59;1155;-69
2022/02/11 01:08:09;;;;;;;;;;;;;;;;;;2214416;59;1986;-69
2022/02/11 01:10:44;;;;;;;;;;;;;;;;;;2214278;59;1856;-69
2022/02/11 01:13:17;;;;;;;;;;;;;;;;;;2213181;59;1549;-69
2022/02/11 01:15:57;;;;;;;;;;;;;;;;;;2214197;59;1556;-69
2022/02/11 01:18:33;;;;;;;;;;;;;;;;;;2213814;59;1132;-69
2022/02/11 01:21:14;;;;;;;;;;;;;;;;;;2214695;59;1450;-69
2022/02/11 01:23:55;;;;;;;;;;;;;;;;;;2214705;59;1582;-69
2022/02/11 01:26:40;;;;;;;;;;;;;;;;;;2214043;66;1256;-68
2022/02/11 01:32:26;;;;;;;;;;;;;;;;;;2210812;67;1132;-69
2022/02/11 01:35:12;;;;;;;;;;;;;;;;;;2214234;59;1202;-69
2022/02/11 01:37:54;;;;;;;;;;;;;;;;;;2213808;59;1485;-69
2022/02/11 01:46:49;;;;;;;;;;;;;;;;;;2213289;59;1258;-68
2022/02/11 01:52:27;;;;;;;;;;;;;;;;;;2212829;66;1266;-69
2022/02/11 01:55:19;;;;;;;;;;;;;;;;;;2214424;59;1076;-69
2022/02/11 02:01:01;;;;;;;;;;;;;;;;;;2214988;66;1125;-69
2022/02/11 02:04:19;;;;;;;;;;;;;;;;;;2215065;59;1274;-69
2022/02/11 02:12:56;;;;;;;;;;;;;;;;;;2214622;66;1166;-69
2022/02/11 02:15:57;;;;;;;;;;;;;;;;;;2213805;59;1700;-69
2022/02/11 02:24:18;;;;;;;;;;;;;;;;;;2211954;59;1222;-69
2022/02/11 02:27:21;;;;;;;;;;;;;;;;;;2214656;66;1939;-69
2022/02/11 02:30:49;;;;;;;;;;;;;;;;;;2214146;59;1468;-69
2022/02/11 02:36:13;;;;;;;;;;;;;;;;;;2213982;59;1866;-69
2022/02/11 02:50:24;;;;;;;;;;;;;;;;;;2215303;59;1417;-70
2022/02/11 02:58:45;;;;;;;;;;;;;;;;;;2214121;59;1221;-69
2022/02/11 03:01:37;;;;;;;;;;;;;;;;;;2215131;66;1101;-69
2022/02/11 03:35:27;;;;;;;;;;;;;;;;;;2214626;59;1277;-70
2022/02/11 03:49:22;;;;;;;;;;;;;;;;;;2214444;59;1938;-70
2022/02/11 03:52:33;;;;;;;;;;;;;;;;;;2214420;59;1139;-69
2022/02/11 03:55:43;;;;;;;;;;;;;;;;;;2214406;66;1097;-69
2022/02/11 03:58:41;;;;;;;;;;;;;;;;;;2213918;59;1279;-70
2022/02/11 04:21:43;;;;;;;;;;;;;;;;;;2209150;59;1604;-68
2022/02/11 04:55:22;;;;;;;;;;;;;;;;;;2212352;67;1102;-69
2022/02/11 05:00:47;;;;;;;;;;;;;;;;;;2210738;59;1177;-69
2022/02/11 05:03:20;;;;;;;;;;;;;;;;;;2211240;59;1212;-69
2022/02/11 05:05:54;;;;;;;;;;;;;;;;;;2212086;59;1216;-69
2022/02/11 05:08:28;;;;;;;;;;;;;;;;;;2210894;59;1982;-69
2022/02/11 05:11:02;;;;;;;;;;;;;;;;;;2210445;59;1112;-69
2022/02/11 05:13:36;;;;;;;;;;;;;;;;;;2210740;59;1141;-69
2022/02/11 05:16:12;;;;;;;;;;;;;;;;;;2211837;59;1549;-69
2022/02/11 05:18:45;;;;;;;;;;;;;;;;;;2211356;59;1204;-69
2022/02/11 05:21:19;;;;;;;;;;;;;;;;;;2211317;67;1710;-69
2022/02/11 05:23:52;;;;;;;;;;;;;;;;;;2210413;59;1985;-69
2022/02/11 05:26:25;;;;;;;;;;;;;;;;;;2212452;59;1238;-69
2022/02/11 05:28:58;;;;;;;;;;;;;;;;;;2211234;59;2091;-69
2022/02/11 05:31:34;;;;;;;;;;;;;;;;;;2212063;59;1219;-69
2022/02/11 05:34:08;;;;;;;;;;;;;;;;;;2211784;59;1125;-69
2022/02/11 05:36:41;;;;;;;;;;;;;;;;;;2211117;59;1926;-69
2022/02/11 05:39:14;;;;;;;;;;;;;;;;;;2210797;59;1285;-69
2022/02/11 05:41:48;;;;;;;;;;;;;;;;;;2211366;59;1547;-69
2022/02/11 05:44:21;;;;;;;;;;;;;;;;;;2210720;59;1181;-69
2022/02/11 05:46:57;;;;;;;;;;;;;;;;;;2211734;59;1316;-69
2022/02/11 05:49:30;;;;;;;;;;;;;;;;;;2207575;59;1940;-69
2022/02/11 05:52:03;;;;;;;;;;;;;;;;;;2211132;59;1264;-69
2022/02/11 05:54:36;;;;;;;;;;;;;;;;;;2211078;67;1206;-69
2022/02/11 05:57:10;;;;;;;;;;;;;;;;;;2211149;59;1995;-69
2022/02/11 05:59:43;;;;;;;;;;;;;;;;;;2210050;59;1198;-69
2022/02/11 06:02:19;;;;;;;;;;;;;;;;;;2211779;67;1275;-69
2022/02/11 06:04:53;;;;;;;;;;;;;;;;;;2211323;59;1134;-69
2022/02/11 06:07:26;;;;;;;;;;;;;;;;;;2212056;59;1257;-69
2022/02/11 06:09:59;;;;;;;;;;;;;;;;;;2211302;59;1481;-69
2022/02/11 06:12:32;;;;;;;;;;;;;;;;;;2206558;59;1772;-69
2022/02/11 06:15:07;;;;;;;;;;;;;;;;;;2210723;59;1164;-68
2022/02/11 06:17:43;;;;;;;;;;;;;;;;;;2210520;59;1694;-69
2022/02/11 06:20:16;;;;;;;;;;;;;;;;;;2211017;59;1419;-70
2022/02/11 06:22:49;;;;;;;;;;;;;;;;;;2210797;59;1311;-69
2022/02/11 06:25:23;;;;;;;;;;;;;;;;;;2211520;67;1117;-69
2022/02/11 06:27:56;;;;;;;;;;;;;;;;;;2212365;59;1999;-69
2022/02/11 06:30:29;;;;;;;;;;;;;;;;;;2212329;67;1258;-70
2022/02/11 06:33:05;;;;;;;;;;;;;;;;;;2212592;59;1446;-69
2022/02/11 06:35:42;;;;;;;;;;;;;;;;;;2210298;59;1705;-70
2022/02/11 06:38:17;;;;;;;;;;;;;;;;;;2209255;59;1919;-69
2022/02/11 06:40:50;;;;;;;;;;;;;;;;;;2210681;59;1178;-69
2022/02/11 06:43:23;;;;;;;;;;;;;;;;;;2210990;59;1132;-69
2022/02/11 06:45:56;;;;;;;;;;;;;;;;;;2212374;67;1329;-70
2022/02/11 06:48:33;;;;;;;;;;;;;;;;;;2212107;59;1945;-69
2022/02/11 06:51:06;;;;;;;;;;;;;;;;;;2211303;59;1263;-69
2022/02/11 06:53:39;;;;;;;;;;;;;;;;;;2211427;67;1095;-69
2022/02/11 06:56:12;;;;;;;;;;;;;;;;;;2211641;59;1623;-69
2022/02/11 06:58:49;;;;;;;;;;;;;;;;;;2212408;67;1358;-69
2022/02/11 07:01:23;;;;;;;;;;;;;;;;;;2211946;59;1201;-69
2022/02/11 07:03:58;;;;;;;;;;;;;;;;;;2212634;67;1148;-69
2022/02/11 07:06:32;;;;;;;;;;;;;;;;;;2211864;59;1695;-69
2022/02/11 07:09:05;;;;;;;;;;;;;;;;;;2209835;59;1937;-68
2022/02/11 07:11:38;;;;;;;;;;;;;;;;;;2203234;59;2081;-69
2022/02/11 07:14:12;;;;;;;;;;;;;;;;;;2210520;59;1209;-69
2022/02/11 07:16:47;;;;;;;;;;;;;;;;;;2210372;59;2011;-69
2022/02/11 07:19:23;;;;;;;;;;;;;;;;;;2209036;59;2449;-69
2022/02/11 07:22:00;;;;;;;;;;;;;;;;;;2208063;59;2264;-69
2022/02/11 07:24:34;;;;;;;;;;;;;;;;;;2210907;67;1141;-69
2022/02/11 07:27:09;;;;;;;;;;;;;;;;;;2212356;59;1449;-69
2022/02/11 07:29:42;;;;;;;;;;;;;;;;;;2207484;59;1980;-69
2022/02/11 07:32:16;;;;;;;;;;;;;;;;;;2205109;59;1683;-69
2022/02/11 07:34:52;;;;;;;;;;;;;;;;;;2210396;59;1134;-69
2022/02/11 07:37:25;;;;;;;;;;;;;;;;;;2210057;59;2595;-68
2022/02/11 07:39:59;;;;;;;;;;;;;;;;;;2209042;59;2575;-69
2022/02/11 07:42:33;;;;;;;;;;;;;;;;;;2210211;67;1066;-69
2022/02/11 07:45:06;;;;;;;;;;;;;;;;;;2207197;59;1707;-69
2022/02/11 07:47:40;;;;;;;;;;;;;;;;;;2211451;59;1798;-69
2022/02/11 07:50:16;;;;;;;;;;;;;;;;;;2210721;59;1941;-69
2022/02/11 07:52:49;;;;;;;;;;;;;;;;;;2211738;67;1109;-69
2022/02/11 07:55:22;;;;;;;;;;;;;;;;;;2197600;59;2054;-69
2022/02/11 07:57:56;;;;;;;;;;;;;;;;;;2209440;59;1902;-69
2022/02/11 08:00:29;;;;;;;;;;;;;;;;;;2209238;59;1838;-69
2022/02/11 08:03:03;;;;;;;;;;;;;;;;;;2211055;59;1384;-69
2022/02/11 08:05:38;;;;;;;;;;;;;;;;;;2210563;59;1160;-69
2022/02/11 08:08:12;;;;;;;;;;;;;;;;;;2205323;59;1991;-69
2022/02/11 08:10:45;;;;;;;;;;;;;;;;;;2206435;59;1780;-69
2022/02/11 08:13:18;;;;;;;;;;;;;;;;;;2210585;59;1215;-69
2022/02/11 08:15:51;;;;;;;;;;;;;;;;;;2211293;67;2996;-69
2022/02/11 08:18:25;;;;;;;;;;;;;;;;;;2210105;59;1834;-69
2022/02/11 08:21:01;;;;;;;;;;;;;;;;;;2211248;59;1953;-69
2022/02/11 08:23:34;;;;;;;;;;;;;;;;;;2210652;59;1702;-69
2022/02/11 08:26:08;;;;;;;;;;;;;;;;;;2210277;59;1604;-69
2022/02/11 08:28:41;;;;;;;;;;;;;;;;;;2210138;59;1925;-69
2022/02/11 08:31:14;;;;;;;;;;;;;;;;;;2207430;59;1965;-70
2022/02/11 08:33:49;;;;;;;;;;;;;;;;;;2212392;59;1389;-69
2022/02/11 08:36:25;;;;;;;;;;;;;;;;;;2211229;59;2408;-69
2022/02/11 08:38:58;;;;;;;;;;;;;;;;;;2208767;59;2328;-69
2022/02/11 08:41:31;;;;;;;;;;;;;;;;;;2209131;59;2300;-69
2022/02/11 08:44:04;;;;;;;;;;;;;;;;;;2211553;59;1754;-68
2022/02/11 08:46:38;;;;;;;;;;;;;;;;;;2209662;59;1310;-69
2022/02/11 08:49:11;;;;;;;;;;;;;;;;;;2210196;59;1924;-69
2022/02/11 08:51:47;;;;;;;;;;;;;;;;;;2209746;59;2626;-69
2022/02/11 08:54:20;;;;;;;;;;;;;;;;;;2211884;59;2438;-69
2022/02/11 08:56:53;;;;;;;;;;;;;;;;;;2207775;59;2232;-69
2022/02/11 08:59:27;;;;;;;;;;;;;;;;;;2209236;59;2171;-69
2022/02/11 09:02:00;;;;;;;;;;;;;;;;;;2209776;59;1853;-69
2022/02/11 09:04:33;;;;;;;;;;;;;;;;;;2213190;67;1198;-69
2022/02/11 09:07:09;;;;;;;;;;;;;;;;;;2211324;59;1854;-69
2022/02/11 09:09:42;;;;;;;;;;;;;;;;;;2211837;59;2091;-69
2022/02/11 09:12:15;;;;;;;;;;;;;;;;;;2210475;59;1446;-69
2022/02/11 09:14:49;;;;;;;;;;;;;;;;;;2210101;59;1868;-69
2022/02/11 09:17:22;;;;;;;;;;;;;;;;;;2210047;59;1949;-69
2022/02/11 09:19:55;;;;;;;;;;;;;;;;;;2205268;59;1812;-69
2022/02/11 09:22:31;;;;;;;;;;;;;;;;;;2211936;59;1297;-69
2022/02/11 09:25:04;;;;;;;;;;;;;;;;;;2211105;59;1489;-69
2022/02/11 09:27:43;;;;;;;;;;;;;;;;;;2211066;59;2626;-69
2022/02/11 09:30:18;;;;;;;;;;;;;;;;;;2209064;59;2174;-69
2022/02/11 09:32:52;;;;;;;;;;;;;;;;;;2212064;59;1319;-69
2022/02/11 09:35:28;;;;;;;;;;;;;;;;;;2211893;59;1191;-69
2022/02/11 09:38:04;;;;;;;;;;;;;;;;;;2209365;59;3062;-69
2022/02/11 09:40:39;;;;;;;;;;;;;;;;;;2207841;59;2472;-69
2022/02/11 09:43:15;;;;;;;;;;;;;;;;;;2209507;59;2427;-69
2022/02/11 09:45:49;;;;;;;;;;;;;;;;;;2209946;59;2899;-70
2022/02/11 09:48:23;;;;;;;;;;;;;;;;;;2210659;59;2016;-69
2022/02/11 09:50:56;;;;;;;;;;;;;;;;;;2211843;59;1926;-69
2022/02/11 09:53:32;;;;;;;;;;;;;;;;;;2211869;67;1035;-69
2022/02/11 09:56:06;;;;;;;;;;;;;;;;;;2210879;59;2549;-69
2022/02/11 09:58:39;;;;;;;;;;;;;;;;;;2208531;59;2295;-69
2022/02/11 10:01:12;;;;;;;;;;;;;;;;;;2205248;59;1934;-69
2022/02/11 10:03:45;;;;;;;;;;;;;;;;;;2213048;59;1301;-69
2022/02/11 10:06:20;;;;;;;;;;;;;;;;;;2213474;67;1299;-69
2022/02/11 10:08:56;;;;;;;;;;;;;;;;;;2211700;59;2000;-70
2022/02/11 10:11:29;;;;;;;;;;;;;;;;;;2208843;59;2801;-70
2022/02/11 10:14:19;;;;;;;;;;;;;;;;;;2211333;59;2582;-69
2022/02/11 10:17:02;;;;;;;;;;;;;;;;;;2211179;59;1824;-70
2022/02/11 10:19:46;;;;;;;;;;;;;;;;;;2213855;53;3661;-71
2022/02/11 10:22:21;;;;;;;;;;;;;;;;;;2215983;58;1793;-71
2022/02/11 10:24:57;;;;;;;;;;;;;;;;;;2216553;58;1216;-71
2022/02/11 10:27:32;;;;;;;;;;;;;;;;;;2216078;59;1248;-71
2022/02/11 10:30:06;;;;;;;;;;;;;;;;;;2212672;59;2160;-71
2022/02/11 10:32:40;;;;;;;;;;;;;;;;;;2214076;67;1198;-71
2022/02/11 10:35:14;;;;;;;;;;;;;;;;;;2213836;59;1531;-71
2022/02/11 10:38:06;;;;;;;;;;;;;;;;;;2213520;59;1250;-71
2022/02/11 10:40:43;;;;;;;;;;;;;;;;;;2211290;59;2307;-71
2022/02/11 10:43:20;;;;;;;;;;;;;;;;;;2211669;59;2661;-71
2022/02/11 10:45:59;;;;;;;;;;;;;;;;;;2212008;59;1883;-71
2022/02/11 10:48:34;;;;;;;;;;;;;;;;;;2211612;59;1834;-71
2022/02/11 10:51:08;;;;;;;;;;;;;;;;;;2211059;59;1979;-71
2022/02/11 10:53:43;;;;;;;;;;;;;;;;;;2213625;58;1865;-71
2022/02/11 10:56:19;;;;;;;;;;;;;;;;;;2214124;67;1144;-70
2022/02/11 10:58:59;;;;;;;;;;;;;;;;;;2210060;59;2308;-71
2022/02/11 11:01:32;;;;;;;;;;;;;;;;;;2211486;59;2521;-71
2022/02/11 11:04:05;;;;;;;;;;;;;;;;;;2211990;59;1142;-72
2022/02/11 11:06:39;;;;;;;;;;;;;;;;;;2213289;59;1965;-71
2022/02/11 11:09:12;;;;;;;;;;;;;;;;;;2213949;67;1943;-71
2022/02/11 11:11:49;;;;;;;;;;;;;;;;;;2211427;58;1853;-71
2022/02/11 11:14:23;;;;;;;;;;;;;;;;;;2211369;67;1987;-71
2022/02/11 11:16:59;;;;;;;;;;;;;;;;;;2211562;59;1723;-71
2022/02/11 11:19:36;;;;;;;;;;;;;;;;;;2211070;59;1799;-71
2022/02/11 11:22:19;;;;;;;;;;;;;;;;;;2212660;59;2496;-71
2022/02/11 11:24:53;;;;;;;;;;;;;;;;;;2216386;66;1208;-71
2022/02/11 11:27:46;;;;;;;;;;;;;;;;;;2213670;59;1123;-71
2022/02/11 11:30:27;;;;;;;;;;;;;;;;;;2210924;59;2066;-71
2022/02/11 11:33:18;;;;;;;;;;;;;;;;;;2212746;59;1185;-71
2022/02/11 11:36:08;;;;;;;;;;;;;;;;;;2213110;59;1218;-71
2022/02/11 11:38:48;;;;;;;;;;;;;;;;;;2213060;59;2270;-71
2022/02/11 11:41:23;;;;;;;;;;;;;;;;;;2213656;59;2459;-71
2022/02/11 11:44:00;;;;;;;;;;;;;;;;;;2210330;59;2629;-72
2022/02/11 11:46:35;;;;;;;;;;;;;;;;;;2211674;59;1339;-72
2022/02/11 11:49:12;;;;;;;;;;;;;;;;;;2211717;59;1706;-72
2022/02/11 11:52:03;;;;;;;;;;;;;;;;;;2210601;59;2803;-71
2022/02/11 11:54:37;;;;;;;;;;;;;;;;;;2213404;59;2232;-71
2022/02/11 11:57:11;;;;;;;;;;;;;;;;;;2211902;58;1800;-71
2022/02/11 11:59:48;;;;;;;;;;;;;;;;;;2208568;58;2589;-71
2022/02/11 12:02:22;;;;;;;;;;;;;;;;;;2211061;58;2976;-71
2022/02/11 12:04:57;;;;;;;;;;;;;;;;;;2212078;58;1713;-71
2022/02/11 12:07:33;;;;;;;;;;;;;;;;;;2214804;58;2112;-72
2022/02/11 12:10:08;;;;;;;;;;;;;;;;;;2211677;59;2462;-71
2022/02/11 12:12:41;;;;;;;;;;;;;;;;;;2212368;59;1216;-71
2022/02/11 12:15:18;;;;;;;;;;;;;;;;;;2211982;59;1908;-71
2022/02/11 12:17:53;;;;;;;;;;;;;;;;;;2213486;59;1614;-71
2022/02/11 12:20:26;;;;;;;;;;;;;;;;;;2210459;59;1766;-71
2022/02/11 12:28:41;;;;;;;;;;;;;;;;;;2212020;59;1945;-71
2022/02/11 12:31:28;;;;;;;;;;;;;;;;;;2211882;59;1991;-71
2022/02/11 12:34:16;;;;;;;;;;;;;;;;;;2213741;59;1059;-72
2022/02/11 12:36:50;;;;;;;;;;;;;;;;;;2212772;59;1149;-72
2022/02/11 12:39:24;;;;;;;;;;;;;;;;;;2210205;58;2536;-72
2022/02/11 12:41:57;;;;;;;;;;;;;;;;;;2212007;59;1928;-71
2022/02/11 12:44:32;;;;;;;;;;;;;;;;;;2210662;59;2462;-71
2022/02/11 12:47:08;;;;;;;;;;;;;;;;;;2211626;59;1391;-72
2022/02/11 12:49:51;;;;;;;;;;;;;;;;;;2211206;59;1873;-72
2022/02/11 12:52:25;;;;;;;;;;;;;;;;;;2213169;66;2639;-72
2022/02/11 12:55:02;;;;;;;;;;;;;;;;;;2213673;59;1216;-72
2022/02/11 12:57:35;;;;;;;;;;;;;;;;;;2212503;59;1787;-72
2022/02/11 13:00:09;;;;;;;;;;;;;;;;;;2209777;59;2153;-72
2022/02/11 13:02:47;;;;;;;;;;;;;;;;;;2210898;59;2532;-72
2022/02/11 13:05:24;;;;;;;;;;;;;;;;;;2212100;59;1672;-72
2022/02/11 13:07:58;;;;;;;;;;;;;;;;;;2211256;59;1900;-71
2022/02/11 13:10:32;;;;;;;;;;;;;;;;;;2208849;58;2542;-72
2022/02/11 13:13:07;;;;;;;;;;;;;;;;;;2212522;59;1150;-72
2022/02/11 13:15:41;;;;;;;;;;;;;;;;;;2211483;59;1994;-72
2022/02/11 13:18:18;;;;;;;;;;;;;;;;;;2211472;58;1851;-72
2022/02/11 13:20:52;;;;;;;;;;;;;;;;;;2210572;58;1940;-72
2022/02/11 13:23:27;;;;;;;;;;;;;;;;;;2212964;59;1403;-72
2022/02/11 13:26:00;;;;;;;;;;;;;;;;;;2212006;67;1098;-72
2022/02/11 13:28:47;;;;;;;;;;;;;;;;;;2211997;58;1864;-71
2022/02/11 13:31:20;;;;;;;;;;;;;;;;;;2212013;59;1940;-72
2022/02/11 13:34:07;;;;;;;;;;;;;;;;;;2213040;67;1172;-72
2022/02/11 13:36:45;;;;;;;;;;;;;;;;;;2212094;59;1599;-72
2022/02/11 13:39:31;;;;;;;;;;;;;;;;;;2210645;59;1956;-71
2022/02/11 13:42:13;;;;;;;;;;;;;;;;;;2209895;59;2151;-71
2022/02/11 13:45:01;;;;;;;;;;;;;;;;;;2209959;59;2444;-72
2022/02/11 13:47:35;;;;;;;;;;;;;;;;;;2212008;59;2247;-72
2022/02/11 13:50:11;;;;;;;;;;;;;;;;;;2211746;59;1991;-72
2022/02/11 13:53:06;;;;;;;;;;;;;;;;;;2212237;67;1344;-72
2022/02/11 13:55:40;;;;;;;;;;;;;;;;;;2212329;59;1199;-72
2022/02/11 13:58:18;;;;;;;;;;;;;;;;;;2210210;59;2495;-71
2022/02/11 14:00:51;;;;;;;;;;;;;;;;;;2208826;59;2524;-72
2022/02/11 14:03:26;;;;;;;;;;;;;;;;;;2211421;59;2679;-72
2022/02/11 14:06:04;;;;;;;;;;;;;;;;;;2211276;58;1519;-71
2022/02/11 14:08:45;;;;;;;;;;;;;;;;;;2211541;67;1998;-71
2022/02/11 14:11:19;;;;;;;;;;;;;;;;;;2209275;59;1933;-71
2022/02/11 14:13:53;;;;;;;;;;;;;;;;;;2210615;59;1966;-71
2022/02/11 14:16:26;;;;;;;;;;;;;;;;;;2212862;59;1310;-72
2022/02/11 14:18:59;;;;;;;;;;;;;;;;;;2211829;59;2011;-72
2022/02/11 14:21:35;;;;;;;;;;;;;;;;;;2211089;59;1925;-71
2022/02/11 14:24:09;;;;;;;;;;;;;;;;;;2211924;59;1785;-72
2022/02/11 14:26:42;;;;;;;;;;;;;;;;;;2212150;59;1051;-72
2022/02/11 14:29:16;;;;;;;;;;;;;;;;;;2212214;59;1913;-72
2022/02/11 14:31:51;;;;;;;;;;;;;;;;;;2210238;59;2080;-72
2022/02/11 14:34:24;;;;;;;;;;;;;;;;;;2213218;59;1739;-71
2022/02/11 14:37:00;;;;;;;;;;;;;;;;;;2212177;59;1044;-71
2022/02/11 14:39:33;;;;;;;;;;;;;;;;;;2209081;59;1724;-72
2022/02/11 14:42:06;;;;;;;;;;;;;;;;;;2211084;59;1915;-71
2022/02/11 14:44:40;;;;;;;;;;;;;;;;;;2210668;59;2298;-72
2022/02/11 14:47:13;;;;;;;;;;;;;;;;;;2209231;59;2597;-72
2022/02/11 14:49:47;;;;;;;;;;;;;;;;;;2210594;59;1739;-72
2022/02/11 14:52:22;;;;;;;;;;;;;;;;;;2211669;59;1932;-72
2022/02/11 14:54:58;;;;;;;;;;;;;;;;;;2213114;67;1097;-72
2022/02/11 14:57:31;;;;;;;;;;;;;;;;;;2213244;59;1565;-71
2022/02/11 15:00:04;;;;;;;;;;;;;;;;;;2207072;59;2467;-72
2022/02/11 15:02:37;;;;;;;;;;;;;;;;;;2209807;59;2422;-72
2022/02/11 15:05:11;;;;;;;;;;;;;;;;;;2211986;59;1179;-71
2022/02/11 15:07:46;;;;;;;;;;;;;;;;;;2213024;67;1823;-71
2022/02/11 15:10:20;;;;;;;;;;;;;;;;;;2210874;59;2463;-72
2022/02/11 15:12:53;;;;;;;;;;;;;;;;;;2212407;59;2286;-72
2022/02/11 15:15:29;;;;;;;;;;;;;;;;;;2212317;59;1991;-71
2022/02/11 15:18:02;;;;;;;;;;;;;;;;;;2211616;59;2008;-71
2022/02/11 15:20:36;;;;;;;;;;;;;;;;;;2211729;59;1882;-71
2022/02/11 15:23:12;;;;;;;;;;;;;;;;;;2212872;59;1328;-71
2022/02/11 15:25:45;;;;;;;;;;;;;;;;;;2213409;59;1166;-71
2022/02/11 15:28:18;;;;;;;;;;;;;;;;;;2212624;59;1958;-71
2022/02/11 15:30:51;;;;;;;;;;;;;;;;;;2211978;58;1937;-71
2022/02/11 15:33:25;;;;;;;;;;;;;;;;;;2211889;59;1395;-71
2022/02/11 15:35:58;;;;;;;;;;;;;;;;;;2213079;67;1050;-71
2022/02/11 15:38:34;;;;;;;;;;;;;;;;;;2210842;59;1933;-71
2022/02/11 15:41:08;;;;;;;;;;;;;;;;;;2211326;59;2033;-72
2022/02/11 15:43:41;;;;;;;;;;;;;;;;;;2212785;59;2544;-71
2022/02/11 15:46:14;;;;;;;;;;;;;;;;;;2213227;59;1331;-72
2022/02/11 15:48:47;;;;;;;;;;;;;;;;;;2212709;59;1868;-72
2022/02/11 15:51:21;;;;;;;;;;;;;;;;;;2210582;59;1988;-71
2022/02/11 15:53:56;;;;;;;;;;;;;;;;;;2212958;59;1213;-72
2022/02/11 15:56:30;;;;;;;;;;;;;;;;;;2212246;59;2107;-72
2022/02/11 15:59:03;;;;;;;;;;;;;;;;;;2210820;59;1901;-72
2022/02/11 16:01:36;;;;;;;;;;;;;;;;;;2210887;59;2636;-71
2022/02/11 16:04:09;;;;;;;;;;;;;;;;;;2211540;59;2480;-72
2022/02/11 16:06:42;;;;;;;;;;;;;;;;;;2210937;59;1161;-72
2022/02/11 16:09:18;;;;;;;;;;;;;;;;;;2211226;59;1514;-72
2022/02/11 16:11:52;;;;;;;;;;;;;;;;;;2209904;58;2588;-71
2022/02/11 16:14:25;;;;;;;;;;;;;;;;;;2211354;60;1945;-71
2022/02/11 16:17:00;;;;;;;;;;;;;;;;;;2211547;59;1133;-71
2022/02/11 16:19:33;;;;;;;;;;;;;;;;;;2211528;59;1970;-70
2022/02/11 16:22:07;;;;;;;;;;;;;;;;;;2208039;53;3610;-70
2022/02/11 16:24:44;;;;;;;;;;;;;;;;;;2207905;59;2038;-71
2022/02/11 16:27:18;;;;;;;;;;;;;;;;;;2210408;59;2412;-71
2022/02/11 16:29:52;;;;;;;;;;;;;;;;;;2208867;59;1975;-71
2022/02/11 16:32:25;;;;;;;;;;;;;;;;;;2206147;59;1972;-70
2022/02/11 16:34:58;;;;;;;;;;;;;;;;;;2206628;67;1105;-70
2022/02/11 16:37:31;;;;;;;;;;;;;;;;;;2206568;59;1339;-71
2022/02/11 16:40:08;;;;;;;;;;;;;;;;;;2204062;59;1921;-70
2022/02/11 16:42:42;;;;;;;;;;;;;;;;;;2205536;59;2405;-71
2022/02/11 16:45:15;;;;;;;;;;;;;;;;;;2204168;59;1849;-71
2022/02/11 16:47:48;;;;;;;;;;;;;;;;;;2206190;59;1902;-71
2022/02/11 16:50:21;;;;;;;;;;;;;;;;;;2204453;59;1922;-71
2022/02/11 16:52:55;;;;;;;;;;;;;;;;;;2205646;59;1984;-71
2022/02/11 16:55:31;;;;;;;;;;;;;;;;;;2206355;67;1176;-70
2022/02/11 16:58:05;;;;;;;;;;;;;;;;;;2205746;59;1779;-71
2022/02/11 17:00:38;;;;;;;;;;;;;;;;;;2199736;59;2684;-70
2022/02/11 17:03:14;;;;;;;;;;;;;;;;;;2203863;59;2439;-71
2022/02/11 17:05:48;;;;;;;;;;;;;;;;;;2205098;59;2642;-71
2022/02/11 17:08:21;;;;;;;;;;;;;;;;;;2202812;59;1820;-71
2022/02/11 17:10:57;;;;;;;;;;;;;;;;;;2204038;59;2474;-70
2022/02/11 17:13:31;;;;;;;;;;;;;;;;;;2205656;59;2566;-71
2022/02/11 17:16:04;;;;;;;;;;;;;;;;;;2202972;59;1574;-70
2022/02/11 17:18:38;;;;;;;;;;;;;;;;;;2204741;59;1862;-70
2022/02/11 17:21:11;;;;;;;;;;;;;;;;;;2204524;59;2069;-70
2022/02/11 17:23:44;;;;;;;;;;;;;;;;;;2206345;59;1560;-71
2022/02/11 17:26:20;;;;;;;;;;;;;;;;;;2206627;67;1232;-71
2022/02/11 17:28:53;;;;;;;;;;;;;;;;;;2206079;59;1854;-71
2022/02/11 17:31:27;;;;;;;;;;;;;;;;;;2204960;59;1988;-70
2022/02/11 17:34:00;;;;;;;;;;;;;;;;;;2206622;59;1357;-70
2022/02/11 17:36:34;;;;;;;;;;;;;;;;;;2206640;59;1207;-71
2022/02/11 17:39:08;;;;;;;;;;;;;;;;;;2205985;59;1768;-71
2022/02/11 17:41:44;;;;;;;;;;;;;;;;;;2203850;59;1882;-71
2022/02/11 17:44:18;;;;;;;;;;;;;;;;;;2201635;59;1940;-71
2022/02/11 17:46:52;;;;;;;;;;;;;;;;;;2206449;59;1234;-71
2022/02/11 17:49:26;;;;;;;;;;;;;;;;;;2206410;59;1815;-70
2022/02/11 17:52:00;;;;;;;;;;;;;;;;;;2205311;59;2156;-71
2022/02/11 17:54:33;;;;;;;;;;;;;;;;;;2206704;67;1244;-71
2022/02/11 17:57:11;;;;;;;;;;;;;;;;;;2206663;59;1113;-71
2022/02/11 17:59:45;;;;;;;;;;;;;;;;;;2204562;67;1906;-70
2022/02/11 18:02:18;;;;;;;;;;;;;;;;;;2205090;59;1950;-70
2022/02/11 18:04:51;;;;;;;;;;;;;;;;;;2204652;59;2474;-70
2022/02/11 18:07:25;;;;;;;;;;;;;;;;;;2205958;59;2519;-70
2022/02/11 18:09:58;;;;;;;;;;;;;;;;;;2203202;59;1842;-71
2022/02/11 18:12:34;;;;;;;;;;;;;;;;;;2205686;59;2468;-70
2022/02/11 18:15:08;;;;;;;;;;;;;;;;;;2204737;59;2213;-71
2022/02/11 18:17:43;;;;;;;;;;;;;;;;;;2206596;59;1467;-70
2022/02/11 18:20:16;;;;;;;;;;;;;;;;;;2204381;59;2835;-70
2022/02/11 18:22:49;;;;;;;;;;;;;;;;;;2206269;59;1283;-70
2022/02/11 18:25:22;;;;;;;;;;;;;;;;;;2205542;59;2792;-73
2022/02/11 18:28:01;;;;;;;;;;;;;;;;;;2207472;67;1133;-70
2022/02/11 18:30:34;;;;;;;;;;;;;;;;;;2205505;59;2005;-71
2022/02/11 18:33:08;;;;;;;;;;;;;;;;;;2207365;59;1937;-70
2022/02/11 18:35:41;;;;;;;;;;;;;;;;;;2207514;67;1332;-70
2022/02/11 18:38:14;;;;;;;;;;;;;;;;;;2205487;59;1801;-71
2022/02/11 18:40:47;;;;;;;;;;;;;;;;;;2205436;59;1887;-71
2022/02/11 18:43:23;;;;;;;;;;;;;;;;;;2207022;59;1274;-71
2022/02/11 18:45:57;;;;;;;;;;;;;;;;;;2206759;59;2704;-70
2022/02/11 18:48:32;;;;;;;;;;;;;;;;;;2207178;59;1764;-70
2022/02/11 18:51:05;;;;;;;;;;;;;;;;;;2205843;59;1817;-70
2022/02/11 18:53:38;;;;;;;;;;;;;;;;;;2207309;67;1995;-70
2022/02/11 18:56:12;;;;;;;;;;;;;;;;;;2206322;60;1808;-70
2022/02/11 18:58:49;;;;;;;;;;;;;;;;;;2206851;59;1989;-71
2022/02/11 19:01:22;;;;;;;;;;;;;;;;;;2205406;59;1938;-70
2022/02/11 19:03:55;;;;;;;;;;;;;;;;;;2205866;59;1781;-70
2022/02/11 19:06:29;;;;;;;;;;;;;;;;;;2205632;59;2222;-70
2022/02/11 19:09:02;;;;;;;;;;;;;;;;;;2206030;67;2643;-70
2022/02/11 19:11:35;;;;;;;;;;;;;;;;;;2204881;59;1878;-70
2022/02/11 19:14:15;;;;;;;;;;;;;;;;;;2204460;59;2516;-70
2022/02/11 19:16:49;;;;;;;;;;;;;;;;;;2206516;59;1156;-70
2022/02/11 19:19:22;;;;;;;;;;;;;;;;;;2206498;59;1848;-70
2022/02/11 19:21:55;;;;;;;;;;;;;;;;;;2205652;59;1929;-71
2022/02/11 19:24:28;;;;;;;;;;;;;;;;;;2207154;59;1298;-71
2022/02/11 19:27:02;;;;;;;;;;;;;;;;;;2207360;67;1120;-70
2022/02/11 19:29:39;;;;;;;;;;;;;;;;;;2206621;59;2589;-70
2022/02/11 19:32:12;;;;;;;;;;;;;;;;;;2205824;67;1978;-71
2022/02/11 19:34:45;;;;;;;;;;;;;;;;;;2207114;59;1242;-70
2022/02/11 19:37:19;;;;;;;;;;;;;;;;;;2206632;59;1231;-70
2022/02/11 19:39:53;;;;;;;;;;;;;;;;;;2205865;59;1913;-70
2022/02/11 19:42:29;;;;;;;;;;;;;;;;;;2203191;59;1853;-71
2022/02/11 19:45:05;;;;;;;;;;;;;;;;;;2205624;59;1952;-70
2022/02/11 19:47:39;;;;;;;;;;;;;;;;;;2206599;59;1349;-70
2022/02/11 19:50:12;;;;;;;;;;;;;;;;;;2204896;59;2441;-70
2022/02/11 19:52:45;;;;;;;;;;;;;;;;;;2206501;59;1999;-70
2022/02/11 19:55:18;;;;;;;;;;;;;;;;;;2205209;59;1827;-70
2022/02/11 19:57:55;;;;;;;;;;;;;;;;;;2206917;59;1171;-69
2022/02/11 20:00:32;;;;;;;;;;;;;;;;;;2203340;59;2694;-71
2022/02/11 20:03:05;;;;;;;;;;;;;;;;;;2206518;59;1440;-70
2022/02/11 20:05:39;;;;;;;;;;;;;;;;;;2206908;59;2524;-70
2022/02/11 20:08:13;;;;;;;;;;;;;;;;;;2203779;59;2447;-70
2022/02/11 20:10:46;;;;;;;;;;;;;;;;;;2204173;59;1782;-71
2022/02/11 20:13:20;;;;;;;;;;;;;;;;;;2202537;59;2415;-70
2022/02/11 20:15:56;;;;;;;;;;;;;;;;;;2202899;59;2577;-71
2022/02/11 20:18:29;;;;;;;;;;;;;;;;;;2205542;59;1779;-71
2022/02/11 20:21:02;;;;;;;;;;;;;;;;;;2204522;59;1841;-71
2022/02/11 20:23:36;;;;;;;;;;;;;;;;;;2206446;59;1301;-70
2022/02/11 20:26:09;;;;;;;;;;;;;;;;;;2206700;59;1269;-71
2022/02/11 20:28:42;;;;;;;;;;;;;;;;;;2206346;59;1731;-71
2022/02/11 20:31:20;;;;;;;;;;;;;;;;;;2205534;59;1882;-70
2022/02/11 20:33:54;;;;;;;;;;;;;;;;;;2205814;59;1935;-70
2022/02/11 20:36:27;;;;;;;;;;;;;;;;;;2207125;59;1223;-71
2022/02/11 20:39:03;;;;;;;;;;;;;;;;;;2206127;59;1930;-70
2022/02/11 20:41:36;;;;;;;;;;;;;;;;;;2204600;59;1882;-71
2022/02/11 20:44:09;;;;;;;;;;;;;;;;;;2205493;59;1952;-70
2022/02/11 20:46:48;;;;;;;;;;;;;;;;;;2207161;59;1309;-70
2022/02/11 20:49:22;;;;;;;;;;;;;;;;;;2205908;59;1961;-70
2022/02/11 20:51:55;;;;;;;;;;;;;;;;;;2201882;59;2727;-70